Time;durP1;ratioP1;P1;durP2;ratioP2;P2;SDS_P1;SDS_P2;PMS_P1;PMS_P2;Temp;Humidity;BMP_temperature;BMP_pressure;BME280_temperature;BME280_humidity;BME280_pressure;Samples;Min_cycle;Max_cycle;Signal;HPM_P1;HPM_P2
2021/12/01 00:01:56;;;;;;;3.40;2.13;;;8.30;60.00;;;;;;6243608;23;20393;-87
2021/12/01 00:04:23;;;;;;;2.57;2.20;;;8.70;58.40;;;;;;6243534;23;20397;-87
2021/12/01 00:06:50;;;;;;;2.13;1.97;;;9.00;56.70;;;;;;6230800;23;20739;-86
2021/12/01 00:09:21;;;;;;;9.83;1.87;;;9.20;57.50;;;;;;6221568;23;20448;-86
2021/12/01 00:11:50;;;;;;;1.87;1.80;;;8.80;57.30;;;;;;6221264;23;20493;-87
2021/12/01 00:17:11;;;;;;;2.03;1.90;;;8.60;58.50;;;;;;6218564;23;20459;-85
2021/12/01 00:19:38;;;;;;;2.23;2.03;;;8.90;57.80;;;;;;6237690;23;20405;-87
2021/12/01 00:22:07;;;;;;;2.10;2.00;;;9.40;56.60;;;;;;6240077;23;20475;-86
2021/12/01 00:24:36;;;;;;;2.50;2.30;;;9.20;55.90;;;;;;6232574;23;20397;-87
2021/12/01 00:27:04;;;;;;;1.90;1.90;;;9.40;56.90;;;;;;6243312;23;20492;-89
2021/12/01 00:29:31;;;;;;;2.33;2.20;;;9.30;56.00;;;;;;6231924;23;20437;-86
2021/12/01 00:32:01;;;;;;;2.47;2.33;;;9.10;56.60;;;;;;6217329;23;20483;-86
2021/12/01 00:34:28;;;;;;;2.30;2.00;;;9.40;56.60;;;;;;6216986;23;20552;-86
2021/12/01 00:36:55;;;;;;;2.87;2.10;;;9.80;55.60;;;;;;6216600;23;20480;-85
2021/12/01 00:39:31;;;;;;;2.00;1.80;;;10.00;55.20;;;;;;6215970;23;20432;-86
2021/12/01 00:42:00;;;;;;;2.10;1.90;;;9.60;55.60;;;;;;6216388;23;20381;-86
2021/12/01 00:44:33;;;;;;;1.97;1.83;;;9.20;56.40;;;;;;6216805;23;20413;-86
2021/12/01 00:47:06;;;;;;;1.77;1.70;;;9.30;56.00;;;;;;6216275;23;20416;-86
2021/12/01 00:49:34;;;;;;;2.47;2.00;;;9.60;55.30;;;;;;6215978;23;20834;-86
2021/12/01 00:52:02;;;;;;;2.17;2.00;;;9.40;55.00;;;;;;6216318;23;20413;-86
2021/12/01 00:54:29;;;;;;;1.90;1.90;;;9.30;55.60;;;;;;6216007;23;20498;-86
2021/12/01 00:56:56;;;;;;;1.87;1.87;;;9.20;56.30;;;;;;6215982;23;20401;-86
2021/12/01 00:59:26;;;;;;;7.43;1.80;;;9.10;58.50;;;;;;6215821;23;20479;-86
2021/12/01 01:01:54;;;;;;;1.80;1.70;;;9.20;55.60;;;;;;6216296;23;20424;-86
2021/12/01 01:04:21;;;;;;;1.83;1.73;;;9.20;57.00;;;;;;6215794;23;20436;-86
2021/12/01 01:06:47;;;;;;;1.90;1.77;;;9.20;56.70;;;;;;6216718;23;20469;-86
2021/12/01 01:09:14;;;;;;;1.90;1.80;;;9.00;56.50;;;;;;6215944;23;20452;-86
2021/12/01 01:17:18;;;;;;;2.43;2.00;;;8.80;57.80;;;;;;6216461;23;20456;-86
2021/12/01 01:19:45;;;;;;;2.20;1.80;;;9.10;56.30;;;;;;6215898;23;20421;-86
2021/12/01 01:22:12;;;;;;;1.90;1.80;;;8.40;58.40;;;;;;6217013;23;20442;-86
2021/12/01 01:24:39;;;;;;;3.57;2.47;;;8.40;58.40;;;;;;6216901;23;20500;-86
2021/12/01 01:27:06;;;;;;;2.10;1.87;;;8.60;58.40;;;;;;6216912;23;20420;-86
2021/12/01 01:29:36;;;;;;;2.00;1.90;;;8.20;59.60;;;;;;6217348;23;20528;-86
2021/12/01 01:32:04;;;;;;;1.90;1.90;;;7.90;60.80;;;;;;6235423;23;20416;-86
2021/12/01 01:34:31;;;;;;;2.30;2.10;;;8.00;60.60;;;;;;6235542;23;20428;-85
2021/12/01 01:36:58;;;;;;;2.70;1.90;;;8.30;60.00;;;;;;6232633;23;20428;-85
2021/12/01 01:39:25;;;;;;;2.10;1.80;;;8.10;60.90;;;;;;6218845;23;20472;-85
2021/12/01 01:41:54;;;;;;;2.00;1.90;;;8.40;59.90;;;;;;6215825;23;20428;-85
2021/12/01 01:44:22;;;;;;;2.17;1.97;;;8.50;59.20;;;;;;6216541;23;20409;-85
2021/12/01 01:46:50;;;;;;;1.90;1.80;;;8.40;59.80;;;;;;6217538;23;20753;-85
2021/12/01 01:49:18;;;;;;;2.03;1.87;;;8.60;60.40;;;;;;6227083;23;20464;-85
2021/12/01 01:51:47;;;;;;;2.60;1.77;;;8.60;60.40;;;;;;6220577;23;20559;-86
2021/12/01 01:54:14;;;;;;;1.93;1.90;;;8.40;59.50;;;;;;6218135;23;20389;-86
2021/12/01 01:56:42;;;;;;;2.90;1.90;;;8.60;60.20;;;;;;6217378;23;20440;-86
2021/12/01 01:59:10;;;;;;;2.17;2.00;;;8.40;59.10;;;;;;6216114;23;20452;-86
2021/12/01 02:01:46;;;;;;;2.33;2.20;;;8.40;59.90;;;;;;6215629;23;20456;-86
2021/12/01 02:04:16;;;;;;;3.83;2.37;;;8.30;59.90;;;;;;6215692;23;20470;-86
2021/12/01 02:06:46;;;;;;;1.90;1.80;;;8.70;59.60;;;;;;6216488;23;20413;-86
2021/12/01 02:09:14;;;;;;;3.60;1.90;;;8.60;58.60;;;;;;6215393;23;20478;-86
2021/12/01 02:11:42;;;;;;;2.30;1.80;;;8.50;61.20;;;;;;6215524;23;20440;-85
2021/12/01 02:14:09;;;;;;;1.97;1.77;;;8.80;58.90;;;;;;6215700;23;20393;-85
2021/12/01 02:16:37;;;;;;;1.90;1.90;;;8.70;58.00;;;;;;6215510;23;20433;-86
2021/12/01 02:19:04;;;;;;;1.90;1.80;;;9.00;57.50;;;;;;6218417;23;20414;-86
2021/12/01 02:21:34;;;;;;;2.10;1.90;;;8.90;57.90;;;;;;6237254;23;20397;-86
2021/12/01 02:24:02;;;;;;;2.43;2.00;;;8.90;58.10;;;;;;6237277;23;20440;-86
2021/12/01 02:26:32;;;;;;;3.00;2.00;;;9.00;57.60;;;;;;6234545;23;20389;-86
2021/12/01 02:29:02;;;;;;;1.83;1.80;;;9.00;58.10;;;;;;6217881;23;20504;-86
2021/12/01 02:31:33;;;;;;;1.93;1.83;;;9.20;57.10;;;;;;6217301;23;20816;-85
2021/12/01 02:34:00;;;;;;;2.83;2.10;;;9.20;56.70;;;;;;6218201;23;20389;-85
2021/12/01 02:36:28;;;;;;;2.40;2.10;;;9.50;57.70;;;;;;6217806;23;20412;-85
2021/12/01 02:38:57;;;;;;;2.03;1.90;;;9.80;55.00;;;;;;6217731;23;20445;-85
2021/12/01 02:41:31;;;;;;;1.90;1.70;;;9.80;55.20;;;;;;6216890;23;20390;-85
2021/12/01 02:44:10;;;;;;;1.90;1.80;;;9.90;55.40;;;;;;6217670;23;20411;-85
2021/12/01 02:46:50;;;;;;;2.27;1.90;;;10.00;53.50;;;;;;6217777;23;20726;-85
2021/12/01 02:49:37;;;;;;;2.03;1.90;;;9.70;55.90;;;;;;6217432;23;20920;-85
2021/12/01 02:52:07;;;;;;;1.90;1.80;;;9.50;55.30;;;;;;6219490;23;20412;-86
2021/12/01 02:54:40;;;;;;;4.53;2.00;;;10.00;56.60;;;;;;6220581;23;20433;-86
2021/12/01 02:57:08;;;;;;;2.23;2.07;;;9.70;54.60;;;;;;6220848;23;20393;-85
2021/12/01 02:59:42;;;;;;;2.37;2.00;;;9.60;56.20;;;;;;6220569;23;20439;-86
2021/12/01 03:02:23;;;;;;;1.80;1.70;;;9.70;56.60;;;;;;6220638;23;20377;-85
2021/12/01 03:04:50;;;;;;;1.80;1.73;;;9.70;54.40;;;;;;6221172;23;20409;-86
2021/12/01 03:07:18;;;;;;;2.30;1.83;;;9.20;55.80;;;;;;6238298;23;20409;-86
2021/12/01 03:09:46;;;;;;;1.80;1.70;;;8.70;58.00;;;;;;6238549;23;20471;-86
2021/12/01 03:12:16;;;;;;;1.80;1.70;;;9.00;59.10;;;;;;6233058;23;20400;-86
2021/12/01 03:14:51;;;;;;;1.90;1.80;;;9.20;56.70;;;;;;6241578;23;20377;-88
2021/12/01 03:17:18;;;;;;;2.40;1.80;;;9.30;57.80;;;;;;6229789;23;20818;-85
2021/12/01 03:19:45;;;;;;;1.70;1.70;;;9.60;55.70;;;;;;6218992;23;20456;-84
2021/12/01 03:22:13;;;;;;;2.00;1.87;;;9.60;55.50;;;;;;6220407;23;20416;-85
2021/12/01 03:24:40;;;;;;;1.80;1.70;;;9.30;55.70;;;;;;6216668;23;20418;-85
2021/12/01 03:27:09;;;;;;;2.10;1.80;;;9.20;57.00;;;;;;6216578;23;20471;-86
2021/12/01 03:29:36;;;;;;;1.90;1.90;;;9.20;56.80;;;;;;6216696;23;20434;-86
2021/12/01 03:32:03;;;;;;;4.00;1.80;;;9.20;57.30;;;;;;6216669;23;20526;-86
2021/12/01 03:34:32;;;;;;;1.90;1.83;;;9.20;57.00;;;;;;6216565;23;20978;-86
2021/12/01 03:36:59;;;;;;;1.90;1.80;;;9.00;57.30;;;;;;6217295;23;20393;-86
2021/12/01 03:39:26;;;;;;;2.20;1.90;;;9.10;57.80;;;;;;6217477;23;20627;-86
2021/12/01 03:41:53;;;;;;;2.90;1.87;;;9.00;58.30;;;;;;6217772;23;20393;-86
2021/12/01 03:44:26;;;;;;;2.00;1.90;;;9.00;58.20;;;;;;6217131;23;20721;-87
2021/12/01 03:46:58;;;;;;;2.10;1.80;;;8.90;58.00;;;;;;6217448;23;20670;-86
2021/12/01 03:49:26;;;;;;;2.93;2.00;;;9.10;58.30;;;;;;6217635;23;20820;-86
2021/12/01 03:51:54;;;;;;;2.17;1.90;;;9.20;58.00;;;;;;6218514;23;20447;-86
2021/12/01 03:54:26;;;;;;;4.80;1.90;;;9.30;57.90;;;;;;6217868;23;20398;-86
2021/12/01 03:56:53;;;;;;;2.20;2.00;;;9.50;56.30;;;;;;6216999;23;20381;-86
2021/12/01 03:59:24;;;;;;;2.40;2.00;;;9.70;56.80;;;;;;6216437;23;20475;-86
2021/12/01 04:01:51;;;;;;;2.27;2.07;;;9.60;55.80;;;;;;6218440;23;20386;-86
2021/12/01 04:04:18;;;;;;;2.07;1.93;;;9.70;56.20;;;;;;6218286;23;20869;-86
2021/12/01 04:06:45;;;;;;;2.17;1.83;;;9.80;55.50;;;;;;6218715;23;20412;-86
2021/12/01 04:09:18;;;;;;;1.83;1.80;;;9.70;55.80;;;;;;6219011;23;20425;-86
2021/12/01 04:11:45;;;;;;;2.20;2.00;;;9.70;56.10;;;;;;6219855;23;20421;-86
2021/12/01 04:14:12;;;;;;;2.10;2.00;;;10.00;53.60;;;;;;6217782;23;20404;-86
2021/12/01 04:16:41;;;;;;;2.83;1.80;;;10.30;53.30;;;;;;6215752;23;20425;-87
2021/12/01 04:19:08;;;;;;;3.30;2.00;;;10.30;53.00;;;;;;6215827;23;20418;-87
2021/12/01 04:21:35;;;;;;;2.10;1.90;;;10.70;52.20;;;;;;6216236;23;20397;-87
2021/12/01 04:24:02;;;;;;;2.00;1.90;;;10.90;51.20;;;;;;6215703;23;20717;-87
2021/12/01 04:26:32;;;;;;;2.40;2.07;;;10.70;51.70;;;;;;6215861;23;20443;-87
2021/12/01 04:29:03;;;;;;;1.87;1.80;;;10.70;51.60;;;;;;6216195;23;20924;-87
2021/12/01 04:31:30;;;;;;;2.50;2.03;;;10.90;52.50;;;;;;6215248;23;20475;-86
2021/12/01 04:34:00;;;;;;;2.20;2.00;;;11.20;50.50;;;;;;6215649;23;20417;-87
2021/12/01 04:36:32;;;;;;;2.10;1.90;;;11.40;50.40;;;;;;6216013;23;20483;-86
2021/12/01 04:38:59;;;;;;;2.53;2.00;;;11.50;50.90;;;;;;6215761;23;20497;-87
2021/12/01 04:41:28;;;;;;;2.03;1.80;;;11.30;50.60;;;;;;6215563;23;20408;-86
2021/12/01 04:43:57;;;;;;;2.20;1.93;;;11.10;50.90;;;;;;6215735;23;20542;-87
2021/12/01 04:46:24;;;;;;;3.17;2.10;;;10.70;51.30;;;;;;6215175;23;20405;-87
2021/12/01 04:48:51;;;;;;;2.20;1.87;;;10.40;53.50;;;;;;6215951;23;20432;-86
2021/12/01 04:51:19;;;;;;;2.10;1.97;;;10.20;54.90;;;;;;6216188;23;20920;-86
2021/12/01 04:53:47;;;;;;;1.80;1.80;;;9.90;55.90;;;;;;6215813;23;20492;-86
2021/12/01 04:56:14;;;;;;;3.67;2.10;;;9.80;56.70;;;;;;6215667;23;20427;-86
2021/12/01 04:58:41;;;;;;;3.93;2.10;;;10.00;55.80;;;;;;6215571;23;20974;-86
2021/12/01 05:01:08;;;;;;;1.87;1.80;;;10.40;55.10;;;;;;6215981;23;20496;-85
2021/12/01 05:03:34;;;;;;;8.17;2.20;;;9.90;56.30;;;;;;6215537;23;20463;-87
2021/12/01 05:06:01;;;;;;;10.80;2.10;;;10.00;54.90;;;;;;6215234;23;20416;-87
2021/12/01 05:08:29;;;;;;;3.00;2.00;;;10.40;53.30;;;;;;6215802;23;20433;-87
2021/12/01 05:10:56;;;;;;;2.20;2.00;;;10.10;55.00;;;;;;6215801;23;20448;-87
2021/12/01 05:13:23;;;;;;;4.30;2.03;;;10.00;54.00;;;;;;6215013;23;20920;-86
2021/12/01 05:15:52;;;;;;;2.77;2.27;;;9.80;56.80;;;;;;6215891;23;20416;-87
2021/12/01 05:18:18;;;;;;;2.00;1.90;;;9.80;56.50;;;;;;6215692;23;20494;-86
2021/12/01 05:20:45;;;;;;;1.87;1.80;;;9.80;56.60;;;;;;6215602;23;20485;-86
2021/12/01 05:23:15;;;;;;;2.00;1.90;;;9.70;56.30;;;;;;6215650;23;20460;-86
2021/12/01 05:25:44;;;;;;;2.10;1.90;;;9.90;55.80;;;;;;6215324;23;20756;-86
2021/12/01 05:28:11;;;;;;;2.00;1.90;;;10.00;56.00;;;;;;6215674;23;20497;-85
2021/12/01 05:30:38;;;;;;;1.90;1.80;;;10.10;54.80;;;;;;6215509;23;20463;-85
2021/12/01 05:33:07;;;;;;;2.10;1.80;;;9.70;56.40;;;;;;6216688;23;20491;-85
2021/12/01 05:35:36;;;;;;;2.00;1.90;;;9.50;57.00;;;;;;6215779;23;20726;-85
2021/12/01 05:38:03;;;;;;;1.83;1.80;;;9.40;57.80;;;;;;6216006;23;20498;-87
2021/12/01 05:40:30;;;;;;;2.07;1.80;;;9.60;57.10;;;;;;6216645;23;20988;-86
2021/12/01 05:42:58;;;;;;;2.40;2.00;;;9.80;56.50;;;;;;6224851;23;20425;-87
2021/12/01 05:45:25;;;;;;;2.30;2.07;;;9.90;56.40;;;;;;6228731;23;20426;-86
2021/12/01 05:47:52;;;;;;;1.90;1.77;;;10.00;54.90;;;;;;6229333;23;20440;-86
2021/12/01 05:50:19;;;;;;;1.80;1.80;;;10.00;55.40;;;;;;6225916;23;20512;-85
2021/12/01 05:52:46;;;;;;;3.63;2.03;;;10.10;54.30;;;;;;6223341;23;21035;-86
2021/12/01 05:55:13;;;;;;;1.90;1.80;;;9.80;56.70;;;;;;6240125;23;20437;-87
2021/12/01 05:57:41;;;;;;;2.57;1.90;;;9.50;56.50;;;;;;6238744;23;20408;-85
2021/12/01 06:00:12;;;;;;;1.90;1.87;;;9.80;55.90;;;;;;6235992;23;20421;-88
2021/12/01 06:02:40;;;;;;;2.70;2.00;;;10.00;55.30;;;;;;6242746;23;20392;-87
2021/12/01 06:05:08;;;;;;;2.20;2.00;;;9.80;56.70;;;;;;6232045;23;20411;-86
2021/12/01 06:07:34;;;;;;;2.17;2.00;;;9.80;56.60;;;;;;6236849;23;20425;-87
2021/12/01 06:10:02;;;;;;;3.67;2.40;;;10.00;55.00;;;;;;6241072;23;20416;-88
2021/12/01 06:12:34;;;;;;;2.30;2.10;;;10.60;53.00;;;;;;6241915;23;20496;-88
2021/12/01 06:17:30;;;;;;;2.30;1.90;;;10.50;53.60;;;;;;6272952;23;20389;-88
2021/12/01 06:19:57;;;;;;;2.77;2.37;;;10.20;54.90;;;;;;6271950;22;20432;-87
2021/12/01 06:22:25;;;;;;;2.20;2.00;;;10.30;54.40;;;;;;6240796;23;20461;-86
2021/12/01 06:24:52;;;;;;;2.87;2.17;;;10.40;55.10;;;;;;6241235;23;20389;-86
2021/12/01 06:27:19;;;;;;;2.53;2.37;;;9.70;56.40;;;;;;6242291;23;20445;-88
2021/12/01 06:29:46;;;;;;;2.10;2.00;;;10.10;55.50;;;;;;6242352;23;20429;-85
2021/12/01 06:32:13;;;;;;;2.53;2.00;;;9.70;56.80;;;;;;6242586;23;20429;-86
2021/12/01 06:34:42;;;;;;;2.47;1.83;;;9.60;56.70;;;;;;6242472;23;20398;-87
2021/12/01 06:37:09;;;;;;;3.50;2.07;;;9.50;56.30;;;;;;6242466;23;20402;-85
2021/12/01 06:39:36;;;;;;;4.77;2.07;;;9.60;57.80;;;;;;6242077;23;20417;-87
2021/12/01 06:42:03;;;;;;;2.83;1.90;;;9.70;56.40;;;;;;6242276;23;20381;-88
2021/12/01 06:44:30;;;;;;;4.40;2.20;;;9.50;57.20;;;;;;6242225;23;20386;-86
2021/12/01 06:46:58;;;;;;;2.13;1.97;;;9.40;57.50;;;;;;6242025;23;20401;-86
2021/12/01 06:49:25;;;;;;;2.27;2.07;;;9.30;57.90;;;;;;6241289;23;20415;-88
2021/12/01 06:51:53;;;;;;;2.53;2.10;;;9.40;57.20;;;;;;6242354;23;20419;-87
2021/12/01 06:54:20;;;;;;;2.20;1.97;;;9.30;57.20;;;;;;6242247;23;20403;-87
2021/12/01 06:56:47;;;;;;;3.60;2.13;;;9.50;59.40;;;;;;6241392;23;20413;-86
2021/12/01 06:59:14;;;;;;;1.90;1.90;;;9.70;56.60;;;;;;6242175;23;20426;-87
2021/12/01 07:01:41;;;;;;;2.43;1.90;;;9.80;56.80;;;;;;6242316;23;20399;-88
2021/12/01 07:04:08;;;;;;;3.60;2.40;;;9.80;55.70;;;;;;6242165;23;20392;-87
2021/12/01 07:06:35;;;;;;;3.17;2.10;;;9.80;55.50;;;;;;6227868;23;20398;-86
2021/12/01 07:09:03;;;;;;;2.67;2.07;;;9.80;55.90;;;;;;6215811;23;20505;-86
2021/12/01 07:11:31;;;;;;;4.23;2.17;;;9.70;56.00;;;;;;6217376;23;20438;-86
2021/12/01 07:13:58;;;;;;;3.23;2.20;;;9.60;56.20;;;;;;6217136;23;20470;-86
2021/12/01 07:16:25;;;;;;;1.90;1.90;;;9.70;55.20;;;;;;6233771;23;21028;-86
2021/12/01 07:18:52;;;;;;;2.10;1.90;;;10.00;53.50;;;;;;6246912;23;20562;-87
2021/12/01 07:21:19;;;;;;;2.23;2.10;;;9.90;54.50;;;;;;6247857;23;20892;-86
2021/12/01 07:23:46;;;;;;;4.73;2.00;;;10.10;53.30;;;;;;6249870;23;20414;-86
2021/12/01 07:26:14;;;;;;;1.97;1.87;;;9.90;55.20;;;;;;6247471;23;20413;-86
2021/12/01 07:28:41;;;;;;;4.27;2.20;;;10.00;53.80;;;;;;6246759;23;20440;-86
2021/12/01 07:31:08;;;;;;;2.50;2.23;;;9.90;53.60;;;;;;6247686;23;20471;-86
2021/12/01 07:33:35;;;;;;;2.67;2.00;;;10.10;52.60;;;;;;6248065;23;20528;-86
2021/12/01 07:36:04;;;;;;;2.33;2.10;;;10.00;52.10;;;;;;6248011;23;20440;-86
2021/12/01 07:38:31;;;;;;;2.00;1.90;;;9.90;53.60;;;;;;6248367;23;20456;-86
2021/12/01 07:40:58;;;;;;;3.70;2.10;;;9.90;54.10;;;;;;6253321;23;20404;-85
2021/12/01 07:43:26;;;;;;;4.47;2.03;;;10.00;53.30;;;;;;6251055;23;20407;-86
2021/12/01 07:45:53;;;;;;;1.83;1.83;;;9.70;55.50;;;;;;6251527;23;20763;-86
2021/12/01 07:48:20;;;;;;;2.20;2.00;;;9.70;53.90;;;;;;6248466;23;20418;-87
2021/12/01 07:50:47;;;;;;;3.83;2.10;;;9.70;55.60;;;;;;6245757;23;20495;-86
2021/12/01 07:53:14;;;;;;;2.30;1.90;;;10.10;54.20;;;;;;6246664;23;20448;-87
2021/12/01 07:55:41;;;;;;;1.97;1.90;;;10.10;52.00;;;;;;6247382;23;20431;-86
2021/12/01 07:58:07;;;;;;;2.73;2.13;;;9.90;53.90;;;;;;6246642;23;20436;-86
2021/12/01 08:00:36;;;;;;;3.40;2.00;;;10.20;53.30;;;;;;6246724;23;20494;-87
2021/12/01 08:03:03;;;;;;;2.80;2.17;;;11.10;50.50;;;;;;6247972;23;20773;-86
2021/12/01 08:05:31;;;;;;;2.77;2.10;;;11.60;51.00;;;;;;6246687;23;20465;-86
2021/12/01 08:07:58;;;;;;;2.77;2.20;;;11.70;48.30;;;;;;6246458;23;20392;-87
2021/12/01 08:10:25;;;;;;;2.17;2.07;;;11.40;48.10;;;;;;6246918;23;20431;-86
2021/12/01 08:12:52;;;;;;;3.43;2.40;;;11.30;49.70;;;;;;6247502;23;20468;-87
2021/12/01 08:15:21;;;;;;;2.20;2.00;;;11.60;51.00;;;;;;6246267;22;20508;-86
2021/12/01 08:17:49;;;;;;;3.83;2.30;;;12.20;50.40;;;;;;6247663;23;20398;-86
2021/12/01 08:20:16;;;;;;;3.60;2.40;;;12.70;48.50;;;;;;6246815;23;20415;-85
2021/12/01 08:22:43;;;;;;;3.30;2.43;;;12.50;46.30;;;;;;6246565;23;20438;-85
2021/12/01 08:25:10;;;;;;;2.70;2.30;;;12.30;49.50;;;;;;6246312;23;20392;-87
2021/12/01 08:27:37;;;;;;;3.47;2.20;;;12.60;46.70;;;;;;6247055;23;20979;-86
2021/12/01 08:30:05;;;;;;;2.53;2.10;;;13.10;47.80;;;;;;6249799;23;20447;-87
2021/12/01 08:32:33;;;;;;;3.80;2.00;;;12.50;47.60;;;;;;6252485;23;20527;-87
2021/12/01 08:35:02;;;;;;;4.07;2.27;;;12.80;48.60;;;;;;6251153;23;20388;-86
2021/12/01 08:37:29;;;;;;;1.93;1.90;;;12.40;46.10;;;;;;6249322;23;20412;-86
2021/12/01 08:39:56;;;;;;;1.97;1.90;;;12.40;46.50;;;;;;6250445;23;20989;-86
2021/12/01 08:42:24;;;;;;;2.97;1.90;;;12.50;46.60;;;;;;6265740;22;20401;-87
2021/12/01 08:44:52;;;;;;;1.90;1.80;;;12.70;46.90;;;;;;6268507;22;20407;-86
2021/12/01 08:47:23;;;;;;;2.00;1.90;;;12.40;47.30;;;;;;6260589;22;20396;-89
2021/12/01 08:49:50;;;;;;;2.63;2.10;;;11.60;47.80;;;;;;6272493;22;20454;-87
2021/12/01 08:52:18;;;;;;;3.60;2.47;;;11.50;50.10;;;;;;6263525;22;20443;-87
2021/12/01 08:54:46;;;;;;;3.50;2.60;;;11.40;49.50;;;;;;6247156;23;20714;-86
2021/12/01 08:57:13;;;;;;;3.40;2.80;;;11.80;52.00;;;;;;6248946;23;20404;-86
2021/12/01 08:59:40;;;;;;;2.50;2.30;;;11.50;50.40;;;;;;6245831;23;20404;-86
2021/12/01 09:02:07;;;;;;;2.67;2.53;;;11.00;50.50;;;;;;6246415;23;20412;-86
2021/12/01 09:04:35;;;;;;;2.43;2.20;;;11.40;50.80;;;;;;6246170;23;20412;-87
2021/12/01 09:07:03;;;;;;;2.30;2.10;;;11.30;50.80;;;;;;6245340;23;20412;-87
2021/12/01 09:09:32;;;;;;;7.63;1.90;;;11.30;51.60;;;;;;6246255;23;21010;-86
2021/12/01 09:11:59;;;;;;;1.90;1.83;;;11.50;50.90;;;;;;6249025;23;20443;-87
2021/12/01 09:14:26;;;;;;;3.87;3.23;;;11.60;51.00;;;;;;6248251;23;20420;-87
2021/12/01 09:16:56;;;;;;;2.40;2.20;;;11.50;51.60;;;;;;6251323;22;21014;-87
2021/12/01 09:19:27;;;;;;;2.30;2.10;;;11.40;52.20;;;;;;6248375;23;20785;-86
2021/12/01 09:21:57;;;;;;;2.07;1.93;;;11.40;51.70;;;;;;6249006;23;20411;-86
2021/12/01 09:24:24;;;;;;;3.00;2.00;;;11.30;52.00;;;;;;6248428;23;20397;-87
2021/12/01 09:26:52;;;;;;;2.33;1.93;;;11.20;51.80;;;;;;6249984;23;20419;-87
2021/12/01 09:29:19;;;;;;;1.93;1.90;;;10.90;54.30;;;;;;6248265;23;20413;-88
2021/12/01 09:31:46;;;;;;;2.10;1.93;;;11.50;53.90;;;;;;6248947;23;20392;-89
2021/12/01 09:34:13;;;;;;;1.90;1.80;;;11.50;51.90;;;;;;6249529;23;20424;-89
2021/12/01 09:36:46;;;;;;;1.93;1.90;;;11.60;51.00;;;;;;6248732;23;20408;-90
2021/12/01 09:39:13;;;;;;;3.00;1.70;;;11.60;51.80;;;;;;6221146;23;20437;-89
2021/12/01 09:41:51;;;;;;;1.93;1.83;;;11.40;51.80;;;;;;6220629;23;20447;-90
2021/12/01 09:44:20;;;;;;;1.90;1.80;;;11.40;53.10;;;;;;6220555;23;20377;-89
2021/12/01 09:46:49;;;;;;;2.20;2.00;;;11.80;52.50;;;;;;6226000;23;20389;-90
2021/12/01 09:49:16;;;;;;;1.90;1.80;;;12.20;51.60;;;;;;6223449;23;20417;-89
2021/12/01 09:51:43;;;;;;;3.37;2.10;;;12.40;51.10;;;;;;6219354;23;20449;-89
2021/12/01 09:54:10;;;;;;;2.40;2.03;;;12.30;50.80;;;;;;6222049;23;20421;-89
2021/12/01 09:56:37;;;;;;;3.10;2.10;;;12.20;53.90;;;;;;6216896;23;20432;-88
2021/12/01 09:59:04;;;;;;;6.03;1.90;;;12.30;51.60;;;;;;6215986;23;20849;-88
2021/12/01 10:01:33;;;;;;;1.80;1.70;;;12.30;51.50;;;;;;6216040;23;20483;-88
2021/12/01 10:04:00;;;;;;;1.80;1.80;;;12.70;52.00;;;;;;6216049;23;20443;-88
2021/12/01 10:06:27;;;;;;;2.43;2.23;;;12.30;50.30;;;;;;6215597;23;20939;-87
2021/12/01 10:08:57;;;;;;;2.00;1.90;;;12.30;50.80;;;;;;6217420;23;20532;-88
2021/12/01 10:11:25;;;;;;;1.90;1.80;;;12.50;50.30;;;;;;6216174;23;20469;-88
2021/12/01 10:13:58;;;;;;;2.60;1.80;;;12.50;50.00;;;;;;6215048;23;20448;-88
2021/12/01 10:16:28;;;;;;;1.70;1.70;;;12.70;49.70;;;;;;6215120;23;20422;-89
2021/12/01 10:18:57;;;;;;;1.80;1.70;;;12.70;49.70;;;;;;6215721;23;20428;-88
2021/12/01 10:21:30;;;;;;;2.60;2.00;;;12.80;51.50;;;;;;6215759;23;20443;-89
2021/12/01 10:23:58;;;;;;;2.20;2.00;;;13.00;49.70;;;;;;6215859;23;20462;-89
2021/12/01 10:26:27;;;;;;;1.87;1.77;;;13.40;48.30;;;;;;6215874;23;20412;-88
2021/12/01 10:28:56;;;;;;;2.17;1.97;;;13.30;47.00;;;;;;6215674;23;20596;-88
2021/12/01 10:31:39;;;;;;;7.27;2.33;;;12.70;49.50;;;;;;6215707;23;21029;-89
2021/12/01 10:34:17;;;;;;;2.20;2.00;;;12.50;51.20;;;;;;6215460;23;20474;-89
2021/12/01 10:36:45;;;;;;;2.20;1.90;;;12.50;51.80;;;;;;6215481;23;20453;-89
2021/12/01 10:39:11;;;;;;;3.83;2.70;;;12.40;50.80;;;;;;6215539;23;20820;-89
2021/12/01 10:41:41;;;;;;;6.73;2.50;;;12.60;50.90;;;;;;6216249;23;20718;-89
2021/12/01 10:44:12;;;;;;;5.20;2.40;;;13.00;49.50;;;;;;6217608;23;20449;-89
2021/12/01 10:46:48;;;;;;;1.93;1.87;;;12.20;51.50;;;;;;6217761;23;20801;-87
2021/12/01 10:49:18;;;;;;;1.90;1.80;;;12.30;50.70;;;;;;6217342;23;20413;-87
2021/12/01 10:51:46;;;;;;;2.53;1.80;;;12.30;50.90;;;;;;6217311;23;20501;-87
2021/12/01 10:54:19;;;;;;;2.27;2.07;;;12.10;51.50;;;;;;6216177;23;20535;-86
2021/12/01 10:56:47;;;;;;;2.07;1.90;;;12.20;51.60;;;;;;6217577;23;20399;-87
2021/12/01 10:59:16;;;;;;;2.37;2.00;;;12.00;52.50;;;;;;6218351;23;20499;-88
2021/12/01 11:01:44;;;;;;;6.60;2.00;;;11.90;53.10;;;;;;6218274;23;20405;-89
2021/12/01 11:04:11;;;;;;;4.27;2.10;;;11.60;52.90;;;;;;6219701;23;20437;-89
2021/12/01 11:06:42;;;;;;;2.00;1.90;;;11.60;53.30;;;;;;6216999;23;20472;-89
2021/12/01 11:09:09;;;;;;;2.30;2.10;;;11.80;52.60;;;;;;6217271;23;20528;-89
2021/12/01 11:11:39;;;;;;;2.00;1.90;;;12.10;53.20;;;;;;6216932;23;20421;-89
2021/12/01 11:14:12;;;;;;;2.33;1.90;;;12.10;51.50;;;;;;6216776;23;20970;-89
2021/12/01 11:16:40;;;;;;;1.97;1.87;;;12.00;53.00;;;;;;6218701;23;20760;-88
2021/12/01 11:19:07;;;;;;;3.00;2.00;;;11.90;52.60;;;;;;6220916;23;20445;-89
2021/12/01 11:21:34;;;;;;;6.50;1.90;;;12.20;52.20;;;;;;6221375;23;20476;-89
2021/12/01 11:24:07;;;;;;;2.43;2.10;;;12.20;52.50;;;;;;6223786;23;20409;-88
2021/12/01 11:26:35;;;;;;;1.80;1.70;;;12.60;52.00;;;;;;6220766;23;20503;-89
2021/12/01 11:29:05;;;;;;;5.67;2.23;;;13.00;50.40;;;;;;6222904;23;20453;-88
2021/12/01 11:31:34;;;;;;;2.60;1.90;;;12.90;51.50;;;;;;6230053;23;20437;-89
2021/12/01 11:34:03;;;;;;;2.40;2.17;;;12.70;52.00;;;;;;6237142;23;20424;-88
2021/12/01 11:36:32;;;;;;;2.23;2.10;;;12.50;51.80;;;;;;6220231;23;20821;-89
2021/12/01 11:39:01;;;;;;;2.20;1.80;;;12.50;53.30;;;;;;6220351;23;20521;-88
2021/12/01 11:41:31;;;;;;;3.07;2.40;;;12.60;51.90;;;;;;6220775;23;20408;-89
2021/12/01 11:44:00;;;;;;;1.90;1.80;;;12.30;54.10;;;;;;6217914;23;20409;-89
2021/12/01 11:46:30;;;;;;;2.33;2.13;;;12.10;54.50;;;;;;6217904;23;20494;-85
2021/12/01 11:48:59;;;;;;;2.40;2.20;;;12.00;54.20;;;;;;6216158;23;20575;-86
2021/12/01 11:51:36;;;;;;;3.63;2.20;;;12.30;53.80;;;;;;6216718;23;20802;-85
2021/12/01 11:54:07;;;;;;;2.20;2.00;;;12.50;54.50;;;;;;6216215;23;20417;-85
2021/12/01 11:56:37;;;;;;;2.47;2.10;;;12.60;53.50;;;;;;6215931;23;20390;-85
2021/12/01 11:59:19;;;;;;;1.97;1.90;;;12.20;54.30;;;;;;6215722;23;20492;-86
2021/12/01 12:01:48;;;;;;;2.20;2.00;;;12.00;55.50;;;;;;6216427;23;20421;-86
2021/12/01 12:04:40;;;;;;;3.03;2.00;;;12.30;55.70;;;;;;6215705;23;20397;-86
2021/12/01 12:07:09;;;;;;;2.30;2.10;;;11.90;56.60;;;;;;6205754;23;20474;-85
2021/12/01 12:09:38;;;;;;;2.23;2.10;;;12.10;56.00;;;;;;6215414;23;20552;-85
2021/12/01 12:12:12;;;;;;;2.27;2.10;;;12.30;55.80;;;;;;6215581;23;20417;-86
2021/12/01 12:14:49;;;;;;;3.80;2.10;;;12.30;56.60;;;;;;6215315;23;20540;-86
2021/12/01 12:17:18;;;;;;;1.93;1.83;;;12.20;57.00;;;;;;6215042;23;20908;-86
2021/12/01 12:19:54;;;;;;;1.97;1.90;;;12.30;57.00;;;;;;6215726;23;20501;-86
2021/12/01 12:22:29;;;;;;;2.10;1.97;;;12.90;55.80;;;;;;6215544;23;20389;-85
2021/12/01 12:24:56;;;;;;;5.93;2.10;;;12.70;55.60;;;;;;6215498;23;20776;-86
2021/12/01 12:27:40;;;;;;;2.83;2.33;;;12.30;56.70;;;;;;6215423;23;20398;-86
2021/12/01 12:30:12;;;;;;;3.20;2.70;;;12.60;56.60;;;;;;6215493;23;20502;-86
2021/12/01 12:32:40;;;;;;;2.73;2.20;;;12.90;55.00;;;;;;6215068;23;20427;-86
2021/12/01 12:35:09;;;;;;;2.20;2.00;;;13.30;53.30;;;;;;6215060;23;20444;-86
2021/12/01 12:37:37;;;;;;;2.20;2.10;;;12.90;54.20;;;;;;6215346;23;20525;-86
2021/12/01 12:40:10;;;;;;;2.23;2.00;;;12.80;54.80;;;;;;6215524;23;20589;-86
2021/12/01 12:42:58;;;;;;;2.00;1.93;;;12.70;55.60;;;;;;6217096;23;20473;-86
2021/12/01 12:45:27;;;;;;;2.33;2.10;;;13.00;55.10;;;;;;6215680;23;20424;-86
2021/12/01 12:47:54;;;;;;;2.37;2.07;;;13.00;55.00;;;;;;6215983;23;20443;-86
2021/12/01 12:50:23;;;;;;;2.20;2.00;;;13.00;55.30;;;;;;6215676;23;20520;-86
2021/12/01 12:52:51;;;;;;;9.83;1.90;;;13.40;54.00;;;;;;6222400;23;20399;-85
2021/12/01 12:55:42;;;;;;;2.20;2.00;;;13.20;54.90;;;;;;6217654;23;20507;-86
2021/12/01 12:58:11;;;;;;;1.80;1.70;;;12.80;54.90;;;;;;6216394;23;20405;-86
2021/12/01 13:00:46;;;;;;;2.40;2.20;;;12.70;55.80;;;;;;6216151;23;20498;-86
2021/12/01 13:03:32;;;;;;;1.93;1.83;;;12.50;57.80;;;;;;6217152;23;20386;-86
2021/12/01 13:06:01;;;;;;;1.97;1.90;;;12.40;56.90;;;;;;6215413;23;20408;-86
2021/12/01 13:08:30;;;;;;;2.27;2.10;;;12.50;57.70;;;;;;6215654;23;20438;-86
2021/12/01 13:11:03;;;;;;;5.30;3.43;;;12.40;56.80;;;;;;6217227;23;20414;-87